Aérodrome :
LOGIN :

S'inscrire | Disclaimer

   EN    FR    IT 

 










Légende :    VFR   VFR Marginal   IFR   IFR Intensif   IFR Très Intensif
Visi : 
Plafond : 
>= 8 km
>= 3000ft
5 à 8 km
1000 à 3000 ft
1500m à 5 km
500 à 1000 ft
800 à 1500m
200 à 500 ft
< 800m
< 200 ft
Symboles :   Orages  Brouillard  Fortes neiges  Fortes précipitations  Vent > 20 kt
SIGMETs :   Divers  Orages  Givrage  Turbulence  Onde Orograph.  Cendres Volcan.






- Altitude de l'aérodrome : 789 ft
- Code IATA : BZO


LIPB - Bolzano

DERNIER METAR :
  • 181650Z 16007KT 120V200 9999 FEW080 30/12 Q1015

METARs EXPIRÉS :
  • 181550Z 18007KT 140V210 9999 FEW070 30/12 Q1015
  • 181450Z 17007KT 140V200 9999 FEW070 30/15 Q1015
  • 181350Z 19009KT 150V220 9999 FEW070 31/14 Q1015
  • 181250Z 17005KT 130V210 9999 FEW050 30/15 Q1016

TAF TAF LIPB
Valide du 18 à 12h jusqu'au 19 à 12h UTC


181100Z 1812/1912 24010KT 9999 FEW040
BECMG 1817/1819 VRB05KT



MET'MAP, la Météo Aéronautique d'un coup d'oeil ! - Copyright ORBIFLY Décembre 2007 - Disclaimer

ORBIFLY MET'MAP TEAM :

Programmation & Développement : Alexandra Zaïnal
Sur une idée originale de : Baudouin d'Aumeries
Soutien technique & logistique : Manuel Goepfert
Assistance : Marc-Olivier Méhu




SOURCES & CREDITS :

   NOAA